PDT,Max TemperatureF,Mean TemperatureF,Min TemperatureF,Max Dew PointF,MeanDew PointF,Min DewpointF,Max Humidity, Mean Humidity, Min Humidity, Max Sea Level PressureIn, Mean Sea Level PressureIn, Min Sea Level PressureIn, Max VisibilityMiles, Mean VisibilityMiles, Min VisibilityMiles, Max Wind SpeedMPH, Mean Wind SpeedMPH, Max Gust SpeedMPH,PrecipitationIn, CloudCover, Events, WindDirDegrees
2012-10-1,86,66,46,52,40,32,77,43,19,30.24,30.13,29.93,15,15,15,17,6,,0.00,2,,147
2012-10-2,83,68,50,53,32,11,63,33,7,30.25,29.98,29.89,15,13,1,30,18,39,0.00,2,,303
2012-10-3,66,52,40,32,26,19,56,36,27,30.44,30.36,30.27,15,14,8,14,9,,0.00,0,,8
2012-10-4,67,54,41,32,27,20,68,42,17,30.34,30.30,30.25,15,15,15,15,9,,0.00,0,,333
2012-10-5,67,52,37,30,24,17,70,41,14,30.38,30.33,30.28,15,15,15,14,7,,0.00,0,,335
2012-10-6,65,52,40,29,24,18,63,35,17,30.35,30.34,30.32,15,15,15,10,9,,0.00,0,,327
2012-10-7,71,52,38,27,25,21,59,39,21,30.17,30.10,29.96,15,15,15,7,5,,0.00,0,,100
2012-10-8,71,52,34,34,29,18,83,46,23,29.97,29.95,29.88,15,15,15,6,4,,0.00,2,,62
2012-10-9,77,58,40,38,35,30,78,47,24,30.06,30.01,29.95,15,15,12,7,5,,0.00,1,,85
2012-10-10,77,58,39,41,38,35,92,54,24,29.95,29.90,29.80,15,15,15,8,5,,0.00,0,,110
2012-10-11,75,58,41,41,39,34,83,53,29,29.96,29.88,29.75,15,15,15,6,5,,0.00,0,,199
2012-10-12,67,52,38,42,40,35,98,68,36,29.84,29.80,29.75,15,14,10,6,4,,0.00,5,Rain,96
2012-10-13,69,62,56,48,47,46,68,54,43,30.10,30.08,30.04,15,15,15,20,15,23,0.00,4,,241
2012-10-14,73,63,54,54,51,50,85,65,44,30.04,29.98,29.90,15,15,15,20,9,,0.09,8,Rain,170
2012-10-15,74,64,56,60,53,49,96,71,44,29.89,29.81,29.55,15,15,12,25,11,33,0.14,5,Rain,234
2012-10-16,66,56,46,59,40,32,78,50,33,30.14,29.83,29.50,15,15,15,37,18,48,0.00,1,,270
2012-10-17,63,50,37,36,32,30,74,50,30,30.30,30.24,30.17,15,15,15,10,7,,0.00,3,,219
2012-10-18,63,48,35,39,36,33,93,64,36,30.25,30.12,29.85,15,15,15,9,5,,0.00,5,,95
2012-10-19,69,58,48,49,45,36,73,56,43,29.85,29.75,29.65,15,15,15,33,17,46,0.00,6,,229
2012-10-20,62,50,42,34,28,24,72,44,26,29.85,29.84,29.80,15,15,15,18,11,26,0.00,1,,226
2012-10-21,57,44,33,34,32,28,84,69,40,29.90,29.87,29.81,15,15,15,7,5,,0.00,6,,38
2012-10-22,46,41,32,40,36,32,99,81,63,29.79,29.66,29.55,15,14,10,15,8,20,0.19,7,Rain,282
2012-10-23,53,41,29,41,33,30,100,85,48,29.94,29.83,29.69,15,10,0,9,5,,0.00,5,Fog,297
2012-10-24,44,38,32,39,36,32,99,91,80,30.16,30.01,29.94,15,14,5,8,5,,0.09,7,Rain,307
2012-10-25,53,44,35,39,37,33,97,81,51,30.42,30.35,30.19,15,15,15,7,5,,0.00,5,,129
2012-10-26,42,38,33,41,37,33,100,95,78,30.40,30.27,30.18,15,10,1,13,6,,0.36,8,Rain,317
2012-10-27,43,40,37,43,40,37,99,98,97,30.08,30.07,30.03,10,4,2,7,3,,0.09,8,Rain,24
2012-10-28,55,48,42,52,47,43,100,98,94,29.91,29.89,29.85,15,7,0,5,3,,0.02,8,Fog,70
2012-10-29,71,60,50,53,49,45,99,68,39,30.00,29.88,29.80,15,13,4,26,11,36,0.03,6,Rain,245
2012-10-30,61,56,51,56,51,46,98,84,64,29.98,29.89,29.82,15,15,12,8,6,,0.07,8,Rain,63
2012-10-31,60,56,50,53,51,45,97,89,60,29.81,29.74,29.67,15,15,15,17,8,,0.00,7,,296